Wainfleet, United Kingdom
Current Conditions -  °F | °C
As of 1:50 AM on Sunday 26 Oct 2014 (Local Time) from EGXC Reporting Station
Broken Clouds Broken Clouds  
Wind Chill: 10°   Ceiling: 25000
Heat Index: 10°   Visibility: 6mi
Dew Point:   Wind: 13mph
Humidity: 94%   Direction: 200°SSW
Pressure: 30.03"   Gusts: NA
Location:  53.03°N, 0.27°E
Report Text: EGXC 260050Z 20011KT 9999 SCT040 BKN250 10/09 Q1017 BLU
Loading
Personal Weather Stations






























Interactive Weather Map
Tropical Storm Tracking
New forecast layout! Learn more

10-Day Weather Forecast

Advertisements
Track Severe Weather on mobile